KBVS

Skagit Regional Airport

Burlington/Mount Vernon, Washington, USA
METAR KBVS 191515Z AUTO 00000KT 5SM BR CLR 14/14 A3011 RMK A01
Observed Flight Rules
Aug-19 @ 15:15 UTC (23 minutes ago) Marginal Visual Flight Rules
Visibility Clouds Conditions
5 miles
  • Clear skies
  • Mist
Temperatures Readings
Current 14°C / 57°F
Dewpoint 14°C / 57°F
Humidity 100%
Altimeter 30.11" Hg
Pressure 1020 hPa
Elevation 43
METAR KBVS 191515Z AUTO 00000KT 5SM BR CLR 14/14 A3011 RMK A01
Observed Flight Rules
Aug-19 @ 15:15 UTC
(23 minutes ago)
MVFR
Clouds
  • Clear skies
Conditions
  • Mist
Temperature Dewpoint
14°C / 57°F 14°C / 57°F
Humidity Altimeter Pressure
100% 30.11" Hg 1020 hPa